createdAt,value
2018-08-13T00:04:34.681Z,57.70
2018-08-13T00:09:55.859Z,57.70
2018-08-13T00:15:16.875Z,57.60
2018-08-13T00:20:38.348Z,57.50
2018-08-13T00:25:59.332Z,57.50
2018-08-13T00:31:20.255Z,57.40
2018-08-13T00:36:41.230Z,57.40
2018-08-13T00:42:02.456Z,57.30
2018-08-13T00:47:23.618Z,57.20
2018-08-13T00:52:45.297Z,57.30
2018-08-13T00:58:07.682Z,57.20
2018-08-13T01:03:28.762Z,57.20
2018-08-13T01:08:50.155Z,57.20
2018-08-13T01:14:11.159Z,57.20
2018-08-13T01:19:32.191Z,57.20
2018-08-13T01:24:53.185Z,57.20
2018-08-13T01:30:15.817Z,57.20
2018-08-13T01:35:36.791Z,57.10
2018-08-13T01:40:57.704Z,57.10
2018-08-13T01:46:18.980Z,57.20
2018-08-13T01:51:40.254Z,57.10
2018-08-13T01:57:02.293Z,57.10
2018-08-13T02:02:23.924Z,57.10
2018-08-13T02:07:44.954Z,57.10
2018-08-13T02:13:06.376Z,57.10
2018-08-13T02:18:27.356Z,57.00
2018-08-13T02:23:48.320Z,57.10
2018-08-13T02:29:09.466Z,57.00
2018-08-13T02:34:31.319Z,57.00
2018-08-13T02:39:52.348Z,57.00
2018-08-13T02:45:13.551Z,57.00
2018-08-13T02:50:34.655Z,57.00
2018-08-13T02:55:55.526Z,56.90
2018-08-13T03:01:16.544Z,56.90
2018-08-13T03:06:37.672Z,56.90
2018-08-13T03:11:58.643Z,57.00
2018-08-13T03:17:33.761Z,56.90
2018-08-13T03:22:54.663Z,57.00
2018-08-13T03:28:15.763Z,57.00
2018-08-13T03:33:37.267Z,56.90
2018-08-13T03:38:58.769Z,57.00
2018-08-13T03:44:19.736Z,57.00
2018-08-13T03:49:40.736Z,57.00
2018-08-13T03:55:01.643Z,57.00
2018-08-13T04:00:22.590Z,57.20
2018-08-13T04:05:43.637Z,57.00
2018-08-13T04:11:04.782Z,57.00
2018-08-13T04:16:25.830Z,57.10
2018-08-13T04:21:46.743Z,57.00
2018-08-13T04:27:07.751Z,57.00
2018-08-13T04:32:28.749Z,57.00
2018-08-13T04:37:49.750Z,57.00
2018-08-13T04:43:10.936Z,57.10
2018-08-13T04:48:31.938Z,57.00
2018-08-13T04:53:52.986Z,57.00
2018-08-13T04:59:15.770Z,57.10
2018-08-13T05:04:37.004Z,57.10
2018-08-13T05:09:58.234Z,57.10
2018-08-13T05:15:19.154Z,57.10
2018-08-13T05:20:40.357Z,57.10
2018-08-13T05:26:01.364Z,57.10
2018-08-13T05:31:22.383Z,57.10
2018-08-13T05:36:43.314Z,57.10
2018-08-13T05:42:04.297Z,57.10
2018-08-13T05:47:25.275Z,57.10
2018-08-13T05:52:46.439Z,57.10
2018-08-13T05:58:07.532Z,57.10
2018-08-13T06:03:28.480Z,57.10
2018-08-13T06:08:49.487Z,57.20
2018-08-13T06:14:10.557Z,57.20
2018-08-13T06:19:31.476Z,57.20
2018-08-13T06:24:52.534Z,57.20
2018-08-13T06:30:16.322Z,57.20
2018-08-13T06:35:37.223Z,57.30
2018-08-13T06:40:58.111Z,57.20
2018-08-13T06:46:19.231Z,57.20
2018-08-13T06:51:40.170Z,57.40
2018-08-13T06:57:01.299Z,57.50
2018-08-13T07:02:22.379Z,57.70
2018-08-13T07:07:43.290Z,57.70
2018-08-13T07:13:05.010Z,57.90
2018-08-13T07:18:26.097Z,57.90
2018-08-13T07:23:47.222Z,57.90
2018-08-13T07:29:08.199Z,57.90
2018-08-13T07:34:29.472Z,58.00
2018-08-13T07:39:50.479Z,57.90
2018-08-13T07:45:11.628Z,58.10
2018-08-13T07:50:32.676Z,57.90
2018-08-13T07:55:53.687Z,57.90
2018-08-13T08:01:16.355Z,57.90
2018-08-13T08:06:37.359Z,57.90
2018-08-13T08:11:58.271Z,58.10
2018-08-13T08:17:19.190Z,58.10
2018-08-13T08:22:40.668Z,58.10
2018-08-13T08:28:01.717Z,57.80
2018-08-13T08:33:23.932Z,57.80
2018-08-13T08:38:44.862Z,57.90
2018-08-13T08:44:06.068Z,58.00
2018-08-13T08:49:27.149Z,58.00
2018-08-13T08:54:48.198Z,57.90
2018-08-13T09:00:12.848Z,57.80
2018-08-13T09:05:33.812Z,57.80
2018-08-13T09:10:54.941Z,57.80
2018-08-13T09:16:16.115Z,57.60
2018-08-13T09:21:38.258Z,57.50
2018-08-13T09:27:09.515Z,57.40
2018-08-13T09:32:40.881Z,57.40
2018-08-13T09:38:01.936Z,57.30
2018-08-13T09:43:23.010Z,57.40
2018-08-13T09:48:43.977Z,57.90
2018-08-13T09:54:05.135Z,57.40
2018-08-13T09:59:27.609Z,57.30
2018-08-13T10:04:48.833Z,57.30
2018-08-13T10:10:11.067Z,57.30
2018-08-13T10:15:32.275Z,57.60
2018-08-13T10:20:53.326Z,57.30
2018-08-13T10:26:14.400Z,57.60
2018-08-13T10:31:35.347Z,57.70
2018-08-13T10:36:56.299Z,57.70
2018-08-13T10:42:17.391Z,57.70
2018-08-13T10:47:38.436Z,58.30
2018-08-13T10:53:02.028Z,58.30
2018-08-13T10:58:25.287Z,58.10
2018-08-13T11:03:48.097Z,57.90
2018-08-13T11:09:34.154Z,57.70
2018-08-13T11:15:03.187Z,57.60
2018-08-13T11:20:24.412Z,57.40
2018-08-13T11:25:45.420Z,57.10
2018-08-13T11:31:07.634Z,57.70
2018-08-13T11:36:28.839Z,57.00
2018-08-13T11:41:50.893Z,57.00
2018-08-13T11:47:12.155Z,57.00
2018-08-13T11:52:34.423Z,56.90
2018-08-13T11:57:56.287Z,56.80
2018-08-13T12:03:17.733Z,56.70
2018-08-13T12:08:38.614Z,56.60
2018-08-13T12:14:00.368Z,56.60
2018-08-13T12:19:21.478Z,56.40
2018-08-13T12:24:43.964Z,56.40
2018-08-13T12:30:05.092Z,56.30
2018-08-13T12:35:26.059Z,56.30
2018-08-13T12:40:47.404Z,56.20
2018-08-13T12:46:08.791Z,56.00
2018-08-13T12:51:29.738Z,56.00
2018-08-13T12:56:50.900Z,56.10
2018-08-13T13:02:11.857Z,56.20
2018-08-13T13:07:32.939Z,56.90
2018-08-13T13:12:53.834Z,56.30
2018-08-13T13:18:14.960Z,56.30
2018-08-13T13:23:36.468Z,56.30
2018-08-13T13:28:58.540Z,56.20
2018-08-13T13:34:19.519Z,56.30
2018-08-13T13:39:41.571Z,56.20
2018-08-13T13:45:03.759Z,56.20
2018-08-13T13:50:24.727Z,56.20
2018-08-13T13:55:45.735Z,56.20
2018-08-13T14:01:07.035Z,56.30
2018-08-13T14:06:28.144Z,56.30
2018-08-13T14:11:49.594Z,56.20
2018-08-13T14:17:10.619Z,56.00
2018-08-13T14:22:31.572Z,56.00
2018-08-13T14:27:52.790Z,56.00
2018-08-13T14:33:13.801Z,55.80
2018-08-13T14:38:34.747Z,55.70
2018-08-13T14:43:56.600Z,55.60
2018-08-13T14:49:17.939Z,55.70
2018-08-13T14:54:39.057Z,55.70
2018-08-13T15:00:00.499Z,55.70
2018-08-13T15:05:21.500Z,55.60
2018-08-13T15:10:42.567Z,55.40
2018-08-13T15:16:05.978Z,55.50
2018-08-13T15:21:26.952Z,55.40
2018-08-13T15:26:48.166Z,55.60
2018-08-13T15:32:09.270Z,55.40
2018-08-13T15:37:30.372Z,55.50
2018-08-13T15:42:52.882Z,55.80
2018-08-13T15:48:14.428Z,55.50
2018-08-13T15:53:35.356Z,54.80
2018-08-13T15:58:56.700Z,54.40
2018-08-13T16:04:17.938Z,54.50
2018-08-13T16:09:39.051Z,54.00
2018-08-13T16:15:00.472Z,54.10
2018-08-13T16:20:21.545Z,54.40
2018-08-13T16:25:42.593Z,54.50
2018-08-13T16:31:03.539Z,54.70
2018-08-13T16:36:24.674Z,54.90
2018-08-13T16:41:46.055Z,54.90
2018-08-13T16:47:08.036Z,54.80
2018-08-13T16:52:29.221Z,54.90
2018-08-13T16:57:50.767Z,54.90
2018-08-13T17:03:12.044Z,54.80
2018-08-13T17:08:33.062Z,54.70
2018-08-13T17:13:54.066Z,54.40
2018-08-13T17:19:18.093Z,54.50
2018-08-13T17:24:39.355Z,54.40
2018-08-13T17:30:01.008Z,54.00
2018-08-13T17:35:24.685Z,53.80
2018-08-13T17:40:47.197Z,54.20
2018-08-13T17:46:08.690Z,53.80
2018-08-13T17:51:30.996Z,53.20
2018-08-13T17:56:52.004Z,53.10
2018-08-13T18:02:12.974Z,54.40
2018-08-13T18:07:34.167Z,54.40
2018-08-13T18:12:55.295Z,53.60
2018-08-13T18:18:16.895Z,53.30
2018-08-13T18:23:37.959Z,53.20
2018-08-13T18:28:58.910Z,53.00
2018-08-13T18:34:19.951Z,52.80
2018-08-13T18:39:41.066Z,52.70
2018-08-13T18:45:04.927Z,52.80
2018-08-13T18:50:28.216Z,52.70
2018-08-13T18:55:50.289Z,52.60
2018-08-13T19:01:11.436Z,52.60
2018-08-13T19:06:32.814Z,52.70
2018-08-13T19:11:54.052Z,52.70
2018-08-13T19:17:16.283Z,52.80
2018-08-13T19:22:38.622Z,52.80
2018-08-13T19:27:59.787Z,53.00
2018-08-13T19:33:20.760Z,53.40
2018-08-13T19:38:41.828Z,53.80
2018-08-13T19:44:03.809Z,54.00
2018-08-13T19:49:24.970Z,54.10
2018-08-13T19:54:46.375Z,54.00
2018-08-13T20:00:11.047Z,53.90
2018-08-13T20:05:32.294Z,54.00
2018-08-13T20:10:53.427Z,54.10
2018-08-13T20:16:14.803Z,54.10
2018-08-13T20:21:36.914Z,54.00
2018-08-13T20:26:58.295Z,54.10
2018-08-13T20:32:19.695Z,54.00
2018-08-13T20:37:41.252Z,54.10
2018-08-13T20:43:03.736Z,54.10
2018-08-13T20:48:24.880Z,54.20
2018-08-13T20:53:45.936Z,54.30
2018-08-13T20:59:07.500Z,54.20
2018-08-13T21:04:28.526Z,54.10
2018-08-13T21:09:49.589Z,54.20
2018-08-13T21:15:13.314Z,54.30
2018-08-13T21:20:34.771Z,54.40
2018-08-13T21:25:56.147Z,54.40
2018-08-13T21:31:17.517Z,54.40
2018-08-13T21:36:38.623Z,54.50
2018-08-13T21:41:59.760Z,54.40
2018-08-13T21:47:22.008Z,54.50
2018-08-13T21:52:44.200Z,54.40
2018-08-13T21:58:05.646Z,54.40
2018-08-13T22:03:26.715Z,54.40
2018-08-13T22:08:47.619Z,54.50
2018-08-13T22:14:09.249Z,54.50
2018-08-13T22:19:30.188Z,54.50
2018-08-13T22:25:04.817Z,54.50
2018-08-13T22:30:26.008Z,54.50
2018-08-13T22:35:47.005Z,54.50
2018-08-13T22:41:08.310Z,54.50
2018-08-13T22:46:29.221Z,54.50
2018-08-13T22:51:50.694Z,54.50
2018-08-13T22:57:11.819Z,54.50
2018-08-13T23:02:32.871Z,54.50
2018-08-13T23:07:53.965Z,54.50
2018-08-13T23:13:19.672Z,54.50
2018-08-13T23:18:40.768Z,54.50
2018-08-13T23:24:01.829Z,54.40
2018-08-13T23:29:22.969Z,54.40
2018-08-13T23:34:44.112Z,54.10
2018-08-13T23:40:09.827Z,54.20
2018-08-13T23:45:36.008Z,54.30
2018-08-13T23:51:01.656Z,54.50
2018-08-13T23:56:22.863Z,54.90
